Bookmark and Share
Track history (hours):
 

Genco Auvergne

Last reported at 2014-Apr-02 23:05 UTC. Time now 2014-Apr-18 13:09 UTC.
Position S 28°54' E 032°09'.
Warning: this ship's position is 15 days out of date.

Length 190 m; draft 10.4 m.

Type: Cargo ship. MMSI: 538002570.

NotesDate/timePositionNaut miles runAvg speedWind from/ knotsBaromVisibWave heightAir tempDewpointWater temp
2014-Apr-02 23:05S 28°54' E 032°09'0 0.0
2014-Apr-02 22:17S 28°54' E 032°09'1 0.0
2014-Apr-01 13:22S 28°53' E 032°10'0 0.0
2014-Apr-01 12:22S 28°53' E 032°10'0 0.0
2014-Mar-31 15:33S 28°53' E 032°10'0 0.0
2014-Mar-31 13:09S 28°53' E 032°10'36 2.3
2014-Mar-30 21:13S 29°19' E 031°42'913.9
2014-Mar-30 20:33S 29°26' E 031°35'1413.8
2014-Mar-30 19:33S 29°35' E 031°23'1414.0
2014-Mar-30 18:33S 29°46' E 031°13'1111.3
2014-Mar-30 17:33S 29°52' E 031°02'1 1.3
2014-Mar-30 16:31S 29°53' E 031°00'0 0.0
2014-Mar-30 15:25S 29°53' E 031°00'0 0.0
2014-Mar-30 14:31S 29°53' E 031°00'0 0.0
2014-Mar-30 13:31S 29°53' E 031°00'0 0.0
2014-Mar-30 12:25S 29°53' E 031°00'0 0.0
2014-Mar-30 11:19S 29°53' E 031°00'0 0.0
2014-Mar-30 10:31S 29°53' E 031°00'0 0.0
2014-Mar-30 09:31S 29°53' E 031°00'0 0.0
2014-Mar-30 08:25S 29°53' E 031°00'0 0.0
2014-Mar-30 07:30S 29°53' E 031°00'0 0.0
2014-Mar-30 06:25S 29°53' E 031°00'0 0.0
2014-Mar-30 05:24S 29°53' E 031°00'0 0.0
2014-Mar-30 04:24S 29°53' E 031°00'0 0.0
2014-Mar-30 03:30S 29°53' E 031°00'0 0.0
2014-Mar-30 02:30S 29°53' E 031°00'0 0.0
2014-Mar-30 01:18S 29°53' E 031°00'0 0.0
2014-Mar-30 00:12S 29°53' E 031°00'0 0.0
2014-Mar-29 23:30S 29°53' E 031°00'0 0.0
2014-Mar-29 19:30S 29°53' E 031°00'0 0.0
2014-Mar-29 18:24S 29°53' E 031°00'0 0.0
2014-Mar-29 17:12S 29°53' E 031°00'0 0.0
2014-Mar-29 16:12S 29°53' E 031°00'0 0.0
2014-Mar-29 08:30S 29°53' E 031°00'0 0.0
2014-Mar-29 06:18S 29°53' E 031°00'0 0.0
2014-Mar-29 05:24S 29°53' E 031°00'0 0.0
2014-Mar-29 04:30S 29°53' E 031°00'0 0.0
2014-Mar-29 03:30S 29°53' E 031°00'0 0.0
2014-Mar-29 02:30S 29°53' E 031°00'0 0.0
2014-Mar-29 01:18S 29°53' E 031°00'0 0.0
2014-Mar-29 00:18S 29°53' E 031°00'0 0.0
2014-Mar-28 23:24S 29°53' E 031°00'0 0.0
2014-Mar-28 18:30S 29°53' E 031°00'0 0.0
2014-Mar-28 15:30S 29°53' E 031°00'0 0.0
2014-Mar-28 14:30S 29°53' E 031°00'0 0.0
2014-Mar-28 11:12S 29°53' E 031°00'0 0.0
2014-Mar-28 10:18S 29°53' E 031°00'0 0.0
2014-Mar-28 09:30S 29°53' E 031°00'0 0.0
2014-Mar-28 08:30S 29°53' E 031°00'0 0.0
2014-Mar-28 07:24S 29°53' E 031°00'0 0.0
2014-Mar-28 06:24S 29°53' E 031°00'0 0.0
2014-Mar-28 05:12S 29°53' E 031°00'0 0.0
2014-Mar-28 04:24S 29°53' E 031°00'0 0.0
2014-Mar-28 03:30S 29°53' E 031°00'0 0.0
2014-Mar-28 01:24S 29°53' E 031°00'0 0.0
2014-Mar-27 23:18S 29°53' E 031°00'0 0.0
2014-Mar-27 22:24S 29°53' E 031°00'0 0.0
2014-Mar-27 21:30S 29°53' E 031°00'0 0.0
2014-Mar-27 19:30S 29°53' E 031°00'0 0.0
2014-Mar-27 16:24S 29°53' E 031°00'0 0.0
2014-Mar-27 15:24S 29°53' E 031°00'0 0.0
2014-Mar-27 14:18S 29°53' E 031°00'0 0.0
2014-Mar-27 13:30S 29°53' E 031°00'0 0.0
2014-Mar-27 12:24S 29°53' E 031°00'0 0.0
2014-Mar-27 11:24S 29°53' E 031°00'0 0.0
2014-Mar-27 10:06S 29°53' E 031°00'0 0.0
2014-Mar-27 09:30S 29°53' E 031°00'0 0.0
2014-Mar-27 08:30S 29°53' E 031°00'0 0.0
2014-Mar-27 02:30S 29°53' E 031°00'0 0.0
2014-Mar-26 20:06S 29°53' E 031°00'0 0.0
2014-Mar-26 15:12S 29°53' E 031°00'0 0.0
2014-Mar-26 13:24S 29°53' E 031°00'0 0.0
2014-Mar-26 12:12S 29°53' E 031°00'0 0.0
2014-Mar-26 09:30S 29°53' E 031°00'0 0.0
2014-Mar-26 07:30S 29°53' E 031°00'0 0.0
2014-Mar-25 23:28S 29°53' E 031°00'4 4.1
2014-Mar-25 22:33S 29°51' E 031°04'5 5.2
2014-Mar-25 21:32S 29°54' E 031°10'1 1.0
2014-Mar-25 20:28S 29°53' E 031°09'7 8.1
2014-Mar-25 19:33S 30°00' E 031°06'1010.3
2014-Mar-25 18:33S 30°10' E 031°00'3410.7
2014-Mar-25 15:22S 30°40' E 030°43'10 9.7
2014-Mar-25 14:23S 30°48' E 030°37'  

Dump ship's entire track history

sailing weather and tide predictions

Genco Auvergne — V7ES3 — position and weather